Main page
METAR-TAF:

METAR-TAF

Airports :

Albacete Airport

Albacete, Spain

latitude: 38-57N, longitude: 001-51W, elevation: 702 m

Current weather observation

The report was made 38 minutes ago, at 03:30 UTC
Wind 2 kt from the Southwest
Temperature 13°C
Humidity 100%
Pressure 1023 hPa
Visibility 10 km or more
no clouds below 1500 m and no cumulonimbus

METAR: LEAB 290330Z 23002KT CAVOK 13/13 Q1023 NOSIG

Time: 06:08 (04:08 UTC)

Forecast

The report was made 5 hours and 8 minutes ago, at 23:00 UTC
Forecast valid from 29 at 00 UTC to 29 at 24 UTC
Wind 5 kt from variable directions
Visibility 10 km or more
no clouds below 1500 m and no cumulonimbus
Probability 30% :
Temporary
from 29 at 02 UTC to 29 at 08 UTC
Visibility: 2500 m
Broken clouds at a height of 800 ft
mist, patches of fog
Probability 40% :
Temporary
from 29 at 15 UTC to 29 at 23 UTC
Wind 10 kt from the South/Southeast

TAF: LEAB 282300Z 2900/2924 VRB05KT CAVOK TX33/2916Z TN14/2906Z PROB30 TEMPO 2902/2908 2500 BR BCFG BKN008 PROB40 TEMPO 2915/2923 15010KT

Weather observations and forecasts of more than 4000 airports (METAR and TAF reports).

The available stations are represented by yellow and red dots on the map.

Hover mouse over dot to see the name of the station.

Then click to see weather observations and forecasts.

To change the map : click on the green buttons with a black cross to zoom in, on the green button with a dash to zoom out, or on the green arrows for adjacent maps.


METAR-TAF: